< Typhoon 195323 1954 Season Typhoon 195403 >
Typhoon 195401 (NO-NAME)
General InformationTrack Information on Google Maps || Disaster Info.ResourceGoogle EarthGE AnimationAtom FeedGeoJSON
Detalied Best Track (Time Zone = UTC)
Year Month Day Hour Lat. Long. Pressure (hPa) Wind (kt) Class Image Chart
1954 3 1 06 7.0 135.2 996 0 2 -- Chart
1954 3 1 12 7.0 134.2 996 0 2 -- Chart
1954 3 1 18 7.0 133.0 995 0 2 -- Chart
1954 3 2 00 7.0 132.0 995 0 9 -- Chart
1954 3 2 06 8.0 131.0 995 0 9 -- Chart
1954 3 2 12 8.5 130.1 995 0 9 -- Chart
1954 3 2 18 8.8 129.3 990 0 9 -- Chart
1954 3 3 00 9.0 128.3 990 0 9 -- Chart
1954 3 3 06 9.2 127.5 990 0 9 -- Chart
1954 3 3 12 9.3 126.6 990 0 9 -- Chart
1954 3 3 18 9.6 125.4 990 0 9 -- Chart
1954 3 4 00 9.7 124.3 995 0 9 -- Chart
1954 3 4 06 9.4 123.4 995 0 9 -- Chart
1954 3 4 12 9.7 122.5 995 0 9 -- Chart
1954 3 4 18 9.6 121.5 995 0 9 -- Chart
1954 3 5 00 9.5 120.8 1000 0 2 -- Chart
1954 3 5 06 9.3 120.7 1004 0 2 -- Chart
1954 3 5 12 9.0 120.6 1004 0 2 -- Chart
1954 3 5 18 9.0 120.4 1006 0 2 -- Chart
1954 3 6 00 9.0 120.2 1008 0 2 -- Chart
1954 3 6 06 9.0 120.0 1006 0 2 -- Chart
Japan Meteorological Agency Best Track Data | Correction Date : 1989-06-01
< Typhoon 195323 1954 Season Typhoon 195403 >

Help